sensor_id;sensor_type;location;lat;lon;timestamp;P1;durP1;ratioP1;P2;durP2;ratioP2
31728;SDS011;18309;43.658;1.312;2022-12-01T00:02:15;74.75;;;28.45;;
31728;SDS011;18309;43.658;1.312;2022-12-01T00:04:41;72.95;;;26.92;;
31728;SDS011;18309;43.658;1.312;2022-12-01T00:07:07;73.18;;;30.10;;
31728;SDS011;18309;43.658;1.312;2022-12-01T00:09:32;77.32;;;29.73;;
31728;SDS011;18309;43.658;1.312;2022-12-01T00:12:16;72.97;;;30.15;;
31728;SDS011;18309;43.658;1.312;2022-12-01T00:14:42;76.57;;;28.02;;
31728;SDS011;18309;43.658;1.312;2022-12-01T00:17:08;66.38;;;28.20;;
31728;SDS011;18309;43.658;1.312;2022-12-01T00:19:33;76.10;;;27.92;;
31728;SDS011;18309;43.658;1.312;2022-12-01T00:21:59;68.13;;;27.23;;
31728;SDS011;18309;43.658;1.312;2022-12-01T00:24:25;70.80;;;28.58;;
31728;SDS011;18309;43.658;1.312;2022-12-01T00:26:50;72.53;;;29.35;;
31728;SDS011;18309;43.658;1.312;2022-12-01T00:29:16;69.22;;;28.55;;
31728;SDS011;18309;43.658;1.312;2022-12-01T00:31:42;74.10;;;29.70;;
31728;SDS011;18309;43.658;1.312;2022-12-01T00:34:11;77.53;;;29.45;;
31728;SDS011;18309;43.658;1.312;2022-12-01T00:36:46;77.65;;;30.52;;
31728;SDS011;18309;43.658;1.312;2022-12-01T00:39:12;71.05;;;29.25;;
31728;SDS011;18309;43.658;1.312;2022-12-01T00:41:38;75.07;;;32.03;;
31728;SDS011;18309;43.658;1.312;2022-12-01T00:44:03;73.30;;;31.15;;
31728;SDS011;18309;43.658;1.312;2022-12-01T00:46:29;68.15;;;29.02;;
31728;SDS011;18309;43.658;1.312;2022-12-01T00:48:55;78.30;;;31.48;;
31728;SDS011;18309;43.658;1.312;2022-12-01T00:51:21;71.85;;;32.17;;
31728;SDS011;18309;43.658;1.312;2022-12-01T00:53:46;73.03;;;30.27;;
31728;SDS011;18309;43.658;1.312;2022-12-01T00:56:12;75.55;;;33.13;;
31728;SDS011;18309;43.658;1.312;2022-12-01T00:58:38;77.07;;;30.30;;
31728;SDS011;18309;43.658;1.312;2022-12-01T01:01:04;70.03;;;29.02;;
31728;SDS011;18309;43.658;1.312;2022-12-01T01:03:30;76.95;;;29.52;;
31728;SDS011;18309;43.658;1.312;2022-12-01T01:06:02;65.50;;;28.85;;
31728;SDS011;18309;43.658;1.312;2022-12-01T01:08:29;71.10;;;28.48;;
31728;SDS011;18309;43.658;1.312;2022-12-01T01:10:57;76.35;;;29.75;;
31728;SDS011;18309;43.658;1.312;2022-12-01T01:13:24;69.28;;;30.05;;
31728;SDS011;18309;43.658;1.312;2022-12-01T01:15:56;73.53;;;30.23;;
31728;SDS011;18309;43.658;1.312;2022-12-01T01:18:42;79.50;;;31.20;;
31728;SDS011;18309;43.658;1.312;2022-12-01T01:21:10;74.88;;;30.13;;
31728;SDS011;18309;43.658;1.312;2022-12-01T01:23:38;73.73;;;30.50;;
31728;SDS011;18309;43.658;1.312;2022-12-01T01:26:05;70.90;;;29.38;;
31728;SDS011;18309;43.658;1.312;2022-12-01T01:28:32;67.97;;;29.92;;
31728;SDS011;18309;43.658;1.312;2022-12-01T01:30:58;67.25;;;29.08;;
31728;SDS011;18309;43.658;1.312;2022-12-01T01:33:24;62.72;;;28.63;;
31728;SDS011;18309;43.658;1.312;2022-12-01T01:35:50;63.78;;;27.80;;
31728;SDS011;18309;43.658;1.312;2022-12-01T01:38:15;65.80;;;29.25;;
31728;SDS011;18309;43.658;1.312;2022-12-01T01:40:42;65.88;;;26.83;;
31728;SDS011;18309;43.658;1.312;2022-12-01T01:43:12;66.03;;;29.25;;
31728;SDS011;18309;43.658;1.312;2022-12-01T01:48:05;65.45;;;26.83;;
31728;SDS011;18309;43.658;1.312;2022-12-01T01:50:31;64.30;;;26.50;;
31728;SDS011;18309;43.658;1.312;2022-12-01T01:53:01;63.70;;;27.90;;
31728;SDS011;18309;43.658;1.312;2022-12-01T01:55:34;73.57;;;28.08;;
31728;SDS011;18309;43.658;1.312;2022-12-01T01:58:00;69.88;;;28.55;;
31728;SDS011;18309;43.658;1.312;2022-12-01T02:00:28;63.50;;;26.65;;
31728;SDS011;18309;43.658;1.312;2022-12-01T02:02:55;61.22;;;24.85;;
31728;SDS011;18309;43.658;1.312;2022-12-01T02:05:26;55.13;;;24.95;;
31728;SDS011;18309;43.658;1.312;2022-12-01T02:07:56;60.85;;;26.35;;
31728;SDS011;18309;43.658;1.312;2022-12-01T02:10:26;59.30;;;24.88;;
31728;SDS011;18309;43.658;1.312;2022-12-01T02:40:37;60.33;;;24.90;;
31728;SDS011;18309;43.658;1.312;2022-12-01T02:46:17;56.08;;;23.52;;
31728;SDS011;18309;43.658;1.312;2022-12-01T02:48:48;61.70;;;24.67;;
31728;SDS011;18309;43.658;1.312;2022-12-01T02:51:19;51.63;;;22.48;;
31728;SDS011;18309;43.658;1.312;2022-12-01T02:53:54;47.13;;;20.63;;
31728;SDS011;18309;43.658;1.312;2022-12-01T02:56:23;47.23;;;20.87;;
31728;SDS011;18309;43.658;1.312;2022-12-01T02:58:49;46.47;;;22.83;;
31728;SDS011;18309;43.658;1.312;2022-12-01T03:12:29;42.53;;;20.08;;
31728;SDS011;18309;43.658;1.312;2022-12-01T03:15:13;48.83;;;21.02;;
31728;SDS011;18309;43.658;1.312;2022-12-01T03:20:24;47.90;;;21.23;;
31728;SDS011;18309;43.658;1.312;2022-12-01T03:23:08;48.17;;;21.42;;
31728;SDS011;18309;43.658;1.312;2022-12-01T03:25:38;47.33;;;21.73;;
31728;SDS011;18309;43.658;1.312;2022-12-01T03:28:07;54.23;;;22.70;;
31728;SDS011;18309;43.658;1.312;2022-12-01T03:30:35;53.10;;;22.63;;
31728;SDS011;18309;43.658;1.312;2022-12-01T03:33:03;50.97;;;21.95;;
31728;SDS011;18309;43.658;1.312;2022-12-01T03:35:38;55.08;;;22.88;;
31728;SDS011;18309;43.658;1.312;2022-12-01T03:38:19;55.75;;;22.77;;
31728;SDS011;18309;43.658;1.312;2022-12-01T03:40:52;58.22;;;22.63;;
31728;SDS011;18309;43.658;1.312;2022-12-01T03:43:26;46.00;;;21.42;;
31728;SDS011;18309;43.658;1.312;2022-12-01T03:49:05;52.22;;;20.85;;
31728;SDS011;18309;43.658;1.312;2022-12-01T03:54:17;50.95;;;20.80;;
31728;SDS011;18309;43.658;1.312;2022-12-01T03:56:53;44.47;;;20.50;;
31728;SDS011;18309;43.658;1.312;2022-12-01T03:59:23;45.25;;;19.80;;
31728;SDS011;18309;43.658;1.312;2022-12-01T04:01:51;43.28;;;18.50;;
31728;SDS011;18309;43.658;1.312;2022-12-01T04:04:17;39.63;;;17.65;;
31728;SDS011;18309;43.658;1.312;2022-12-01T04:06:46;40.42;;;17.73;;
31728;SDS011;18309;43.658;1.312;2022-12-01T04:09:14;41.85;;;17.42;;
31728;SDS011;18309;43.658;1.312;2022-12-01T04:11:40;41.92;;;18.17;;
31728;SDS011;18309;43.658;1.312;2022-12-01T04:14:24;45.50;;;19.13;;
31728;SDS011;18309;43.658;1.312;2022-12-01T04:16:49;39.20;;;17.33;;
31728;SDS011;18309;43.658;1.312;2022-12-01T04:19:15;50.45;;;20.75;;
31728;SDS011;18309;43.658;1.312;2022-12-01T04:21:41;40.08;;;18.60;;
31728;SDS011;18309;43.658;1.312;2022-12-01T04:24:10;41.00;;;17.63;;
31728;SDS011;18309;43.658;1.312;2022-12-01T04:26:36;45.50;;;19.88;;
31728;SDS011;18309;43.658;1.312;2022-12-01T04:29:06;41.50;;;18.42;;
31728;SDS011;18309;43.658;1.312;2022-12-01T04:33:58;49.90;;;20.10;;
31728;SDS011;18309;43.658;1.312;2022-12-01T04:36:24;46.85;;;18.95;;
31728;SDS011;18309;43.658;1.312;2022-12-01T04:38:51;42.95;;;18.05;;
31728;SDS011;18309;43.658;1.312;2022-12-01T04:41:17;41.85;;;16.85;;
31728;SDS011;18309;43.658;1.312;2022-12-01T04:43:43;43.25;;;17.58;;
31728;SDS011;18309;43.658;1.312;2022-12-01T04:46:09;42.65;;;18.30;;
31728;SDS011;18309;43.658;1.312;2022-12-01T04:48:35;40.75;;;17.92;;
31728;SDS011;18309;43.658;1.312;2022-12-01T04:51:03;42.78;;;18.25;;
31728;SDS011;18309;43.658;1.312;2022-12-01T04:53:32;39.27;;;17.27;;
31728;SDS011;18309;43.658;1.312;2022-12-01T04:55:58;41.10;;;16.10;;
31728;SDS011;18309;43.658;1.312;2022-12-01T04:58:25;37.03;;;16.25;;
31728;SDS011;18309;43.658;1.312;2022-12-01T05:01:00;40.15;;;16.92;;
31728;SDS011;18309;43.658;1.312;2022-12-01T05:03:26;39.05;;;17.27;;
31728;SDS011;18309;43.658;1.312;2022-12-01T05:06:02;41.67;;;17.88;;
31728;SDS011;18309;43.658;1.312;2022-12-01T05:08:29;35.60;;;16.60;;
31728;SDS011;18309;43.658;1.312;2022-12-01T05:13:43;36.88;;;16.48;;
31728;SDS011;18309;43.658;1.312;2022-12-01T05:16:20;36.78;;;16.55;;
31728;SDS011;18309;43.658;1.312;2022-12-01T05:18:48;34.35;;;14.32;;
31728;SDS011;18309;43.658;1.312;2022-12-01T05:21:38;32.78;;;15.07;;
31728;SDS011;18309;43.658;1.312;2022-12-01T05:24:05;34.55;;;16.42;;
31728;SDS011;18309;43.658;1.312;2022-12-01T05:26:31;37.70;;;15.13;;
31728;SDS011;18309;43.658;1.312;2022-12-01T05:28:57;37.35;;;16.42;;
31728;SDS011;18309;43.658;1.312;2022-12-01T05:31:23;36.70;;;16.05;;
31728;SDS011;18309;43.658;1.312;2022-12-01T05:33:49;40.08;;;16.50;;
31728;SDS011;18309;43.658;1.312;2022-12-01T05:36:14;39.72;;;15.82;;
31728;SDS011;18309;43.658;1.312;2022-12-01T05:38:40;35.72;;;17.25;;
31728;SDS011;18309;43.658;1.312;2022-12-01T05:41:06;36.60;;;15.40;;
31728;SDS011;18309;43.658;1.312;2022-12-01T05:43:31;32.20;;;14.85;;
31728;SDS011;18309;43.658;1.312;2022-12-01T05:45:57;32.95;;;14.68;;
31728;SDS011;18309;43.658;1.312;2022-12-01T05:48:23;27.88;;;13.77;;
31728;SDS011;18309;43.658;1.312;2022-12-01T05:50:49;29.55;;;13.75;;
31728;SDS011;18309;43.658;1.312;2022-12-01T05:53:15;26.00;;;12.20;;
31728;SDS011;18309;43.658;1.312;2022-12-01T05:55:42;24.13;;;11.73;;
31728;SDS011;18309;43.658;1.312;2022-12-01T05:58:08;23.10;;;11.20;;
31728;SDS011;18309;43.658;1.312;2022-12-01T06:00:34;26.00;;;11.15;;
31728;SDS011;18309;43.658;1.312;2022-12-01T06:03:01;20.92;;;10.45;;
31728;SDS011;18309;43.658;1.312;2022-12-01T06:05:27;21.15;;;10.60;;
31728;SDS011;18309;43.658;1.312;2022-12-01T06:07:53;25.90;;;10.95;;
31728;SDS011;18309;43.658;1.312;2022-12-01T06:10:19;22.23;;;10.65;;
31728;SDS011;18309;43.658;1.312;2022-12-01T06:12:44;20.60;;;10.82;;
31728;SDS011;18309;43.658;1.312;2022-12-01T06:15:10;26.38;;;11.63;;
31728;SDS011;18309;43.658;1.312;2022-12-01T06:17:37;23.35;;;11.98;;
31728;SDS011;18309;43.658;1.312;2022-12-01T06:20:03;23.85;;;10.63;;
31728;SDS011;18309;43.658;1.312;2022-12-01T06:22:29;23.83;;;11.70;;
31728;SDS011;18309;43.658;1.312;2022-12-01T06:24:55;22.33;;;10.27;;
31728;SDS011;18309;43.658;1.312;2022-12-01T06:27:21;21.40;;;10.75;;
31728;SDS011;18309;43.658;1.312;2022-12-01T06:29:46;24.10;;;11.07;;
31728;SDS011;18309;43.658;1.312;2022-12-01T06:32:13;20.45;;;10.30;;
31728;SDS011;18309;43.658;1.312;2022-12-01T06:34:39;21.88;;;9.85;;
31728;SDS011;18309;43.658;1.312;2022-12-01T06:37:05;19.35;;;9.55;;
31728;SDS011;18309;43.658;1.312;2022-12-01T06:39:30;18.45;;;8.65;;
31728;SDS011;18309;43.658;1.312;2022-12-01T06:41:56;19.88;;;9.07;;
31728;SDS011;18309;43.658;1.312;2022-12-01T06:44:22;17.15;;;8.15;;
31728;SDS011;18309;43.658;1.312;2022-12-01T06:46:47;17.15;;;8.98;;
31728;SDS011;18309;43.658;1.312;2022-12-01T06:49:17;20.15;;;9.63;;
31728;SDS011;18309;43.658;1.312;2022-12-01T06:51:43;16.20;;;8.50;;
31728;SDS011;18309;43.658;1.312;2022-12-01T06:54:10;19.65;;;9.32;;
31728;SDS011;18309;43.658;1.312;2022-12-01T06:56:36;18.95;;;8.00;;
31728;SDS011;18309;43.658;1.312;2022-12-01T06:59:03;18.85;;;8.90;;
31728;SDS011;18309;43.658;1.312;2022-12-01T07:01:28;20.65;;;9.40;;
31728;SDS011;18309;43.658;1.312;2022-12-01T07:03:54;19.10;;;8.82;;
31728;SDS011;18309;43.658;1.312;2022-12-01T07:06:20;19.63;;;8.48;;
31728;SDS011;18309;43.658;1.312;2022-12-01T07:08:45;14.60;;;6.80;;
31728;SDS011;18309;43.658;1.312;2022-12-01T07:11:12;15.48;;;6.85;;
31728;SDS011;18309;43.658;1.312;2022-12-01T07:13:40;16.80;;;6.95;;
31728;SDS011;18309;43.658;1.312;2022-12-01T07:16:07;15.15;;;7.63;;
31728;SDS011;18309;43.658;1.312;2022-12-01T07:18:33;14.48;;;6.32;;
31728;SDS011;18309;43.658;1.312;2022-12-01T07:21:05;13.75;;;6.80;;
31728;SDS011;18309;43.658;1.312;2022-12-01T07:23:34;13.55;;;6.45;;
31728;SDS011;18309;43.658;1.312;2022-12-01T07:26:01;13.85;;;6.55;;
31728;SDS011;18309;43.658;1.312;2022-12-01T07:28:29;14.45;;;6.85;;
31728;SDS011;18309;43.658;1.312;2022-12-01T07:31:14;15.20;;;7.55;;
31728;SDS011;18309;43.658;1.312;2022-12-01T07:33:41;14.88;;;7.15;;
31728;SDS011;18309;43.658;1.312;2022-12-01T07:36:07;16.75;;;7.72;;
31728;SDS011;18309;43.658;1.312;2022-12-01T07:38:33;16.58;;;7.78;;
31728;SDS011;18309;43.658;1.312;2022-12-01T07:41:03;15.52;;;7.40;;
31728;SDS011;18309;43.658;1.312;2022-12-01T07:43:34;18.02;;;7.55;;
31728;SDS011;18309;43.658;1.312;2022-12-01T07:46:07;17.05;;;7.78;;
31728;SDS011;18309;43.658;1.312;2022-12-01T07:48:35;17.25;;;8.25;;
31728;SDS011;18309;43.658;1.312;2022-12-01T07:51:03;20.33;;;9.13;;
31728;SDS011;18309;43.658;1.312;2022-12-01T07:53:30;22.02;;;9.65;;
31728;SDS011;18309;43.658;1.312;2022-12-01T07:55:56;19.08;;;8.68;;
31728;SDS011;18309;43.658;1.312;2022-12-01T07:58:22;19.08;;;9.63;;
31728;SDS011;18309;43.658;1.312;2022-12-01T08:00:47;20.63;;;8.48;;
31728;SDS011;18309;43.658;1.312;2022-12-01T08:03:13;13.30;;;6.88;;
31728;SDS011;18309;43.658;1.312;2022-12-01T08:05:40;17.25;;;8.38;;
31728;SDS011;18309;43.658;1.312;2022-12-01T08:08:06;18.10;;;8.52;;
31728;SDS011;18309;43.658;1.312;2022-12-01T08:10:31;15.93;;;8.00;;
31728;SDS011;18309;43.658;1.312;2022-12-01T08:12:57;21.10;;;8.07;;
31728;SDS011;18309;43.658;1.312;2022-12-01T08:15:23;20.95;;;8.32;;
31728;SDS011;18309;43.658;1.312;2022-12-01T08:17:48;16.38;;;7.75;;
31728;SDS011;18309;43.658;1.312;2022-12-01T08:20:14;17.45;;;8.32;;
31728;SDS011;18309;43.658;1.312;2022-12-01T08:22:40;22.13;;;9.55;;
31728;SDS011;18309;43.658;1.312;2022-12-01T08:25:06;19.95;;;8.82;;
31728;SDS011;18309;43.658;1.312;2022-12-01T08:27:32;24.25;;;9.93;;
31728;SDS011;18309;43.658;1.312;2022-12-01T08:29:59;25.80;;;10.63;;
31728;SDS011;18309;43.658;1.312;2022-12-01T08:32:24;24.77;;;9.48;;
31728;SDS011;18309;43.658;1.312;2022-12-01T08:34:50;19.90;;;9.38;;
31728;SDS011;18309;43.658;1.312;2022-12-01T08:37:16;25.58;;;9.43;;
31728;SDS011;18309;43.658;1.312;2022-12-01T08:39:42;23.50;;;10.15;;
31728;SDS011;18309;43.658;1.312;2022-12-01T08:42:07;21.73;;;9.13;;
31728;SDS011;18309;43.658;1.312;2022-12-01T08:44:33;18.90;;;8.25;;
31728;SDS011;18309;43.658;1.312;2022-12-01T08:46:59;13.93;;;6.68;;
31728;SDS011;18309;43.658;1.312;2022-12-01T08:49:24;17.77;;;7.75;;
31728;SDS011;18309;43.658;1.312;2022-12-01T08:51:50;16.00;;;7.50;;
31728;SDS011;18309;43.658;1.312;2022-12-01T08:54:16;18.48;;;8.70;;
31728;SDS011;18309;43.658;1.312;2022-12-01T08:56:43;18.80;;;8.05;;
31728;SDS011;18309;43.658;1.312;2022-12-01T08:59:09;17.25;;;8.20;;
31728;SDS011;18309;43.658;1.312;2022-12-01T09:01:35;21.02;;;8.70;;
31728;SDS011;18309;43.658;1.312;2022-12-01T09:04:16;16.58;;;7.75;;
31728;SDS011;18309;43.658;1.312;2022-12-01T09:06:44;17.67;;;7.95;;
31728;SDS011;18309;43.658;1.312;2022-12-01T09:09:12;18.33;;;8.38;;
31728;SDS011;18309;43.658;1.312;2022-12-01T09:11:40;18.30;;;7.70;;
31728;SDS011;18309;43.658;1.312;2022-12-01T09:14:07;21.27;;;9.13;;
31728;SDS011;18309;43.658;1.312;2022-12-01T09:16:33;33.47;;;9.73;;
31728;SDS011;18309;43.658;1.312;2022-12-01T09:18:59;20.33;;;9.32;;
31728;SDS011;18309;43.658;1.312;2022-12-01T09:21:26;20.60;;;9.35;;
31728;SDS011;18309;43.658;1.312;2022-12-01T09:23:57;17.35;;;9.00;;
31728;SDS011;18309;43.658;1.312;2022-12-01T09:26:23;20.67;;;9.18;;
31728;SDS011;18309;43.658;1.312;2022-12-01T09:28:54;17.90;;;8.70;;
31728;SDS011;18309;43.658;1.312;2022-12-01T09:31:21;25.23;;;10.60;;
31728;SDS011;18309;43.658;1.312;2022-12-01T09:33:56;24.27;;;9.95;;
31728;SDS011;18309;43.658;1.312;2022-12-01T09:36:27;24.92;;;10.82;;
31728;SDS011;18309;43.658;1.312;2022-12-01T09:38:54;28.58;;;10.48;;
31728;SDS011;18309;43.658;1.312;2022-12-01T09:41:23;25.50;;;10.73;;
31728;SDS011;18309;43.658;1.312;2022-12-01T09:44:03;29.15;;;11.20;;
31728;SDS011;18309;43.658;1.312;2022-12-01T09:49:20;27.65;;;11.07;;
31728;SDS011;18309;43.658;1.312;2022-12-01T09:52:02;24.15;;;10.73;;
31728;SDS011;18309;43.658;1.312;2022-12-01T09:54:28;25.08;;;10.57;;
31728;SDS011;18309;43.658;1.312;2022-12-01T09:56:54;25.75;;;10.63;;
31728;SDS011;18309;43.658;1.312;2022-12-01T09:59:22;22.48;;;11.02;;
31728;SDS011;18309;43.658;1.312;2022-12-01T10:01:55;23.13;;;10.27;;
31728;SDS011;18309;43.658;1.312;2022-12-01T10:07:11;25.60;;;9.38;;
31728;SDS011;18309;43.658;1.312;2022-12-01T10:12:14;18.38;;;9.07;;
31728;SDS011;18309;43.658;1.312;2022-12-01T10:14:45;20.80;;;10.27;;
31728;SDS011;18309;43.658;1.312;2022-12-01T10:19:44;22.42;;;10.75;;
31728;SDS011;18309;43.658;1.312;2022-12-01T10:22:38;24.67;;;10.77;;
31728;SDS011;18309;43.658;1.312;2022-12-01T10:30:30;21.98;;;9.45;;
31728;SDS011;18309;43.658;1.312;2022-12-01T10:35:54;18.85;;;8.80;;
31728;SDS011;18309;43.658;1.312;2022-12-01T10:40:47;19.33;;;9.82;;
31728;SDS011;18309;43.658;1.312;2022-12-01T10:43:15;20.30;;;8.80;;
31728;SDS011;18309;43.658;1.312;2022-12-01T10:45:42;19.88;;;9.60;;
31728;SDS011;18309;43.658;1.312;2022-12-01T10:48:13;20.38;;;9.52;;
31728;SDS011;18309;43.658;1.312;2022-12-01T10:57:13;18.58;;;8.38;;
31728;SDS011;18309;43.658;1.312;2022-12-01T11:02:16;16.20;;;8.82;;
31728;SDS011;18309;43.658;1.312;2022-12-01T11:04:50;20.80;;;9.68;;
31728;SDS011;18309;43.658;1.312;2022-12-01T11:07:26;18.67;;;8.85;;
31728;SDS011;18309;43.658;1.312;2022-12-01T11:12:40;17.98;;;8.95;;
31728;SDS011;18309;43.658;1.312;2022-12-01T11:15:15;19.92;;;9.68;;
31728;SDS011;18309;43.658;1.312;2022-12-01T11:18:36;20.10;;;10.02;;
31728;SDS011;18309;43.658;1.312;2022-12-01T11:23:48;17.20;;;9.07;;
31728;SDS011;18309;43.658;1.312;2022-12-01T11:26:17;16.52;;;8.43;;
31728;SDS011;18309;43.658;1.312;2022-12-01T11:31:41;13.82;;;7.90;;
31728;SDS011;18309;43.658;1.312;2022-12-01T11:34:28;19.85;;;10.18;;
31728;SDS011;18309;43.658;1.312;2022-12-01T11:36:59;17.55;;;8.77;;
31728;SDS011;18309;43.658;1.312;2022-12-01T11:39:37;16.02;;;8.10;;
31728;SDS011;18309;43.658;1.312;2022-12-01T11:42:05;18.95;;;9.20;;
31728;SDS011;18309;43.658;1.312;2022-12-01T11:44:55;19.40;;;9.30;;
31728;SDS011;18309;43.658;1.312;2022-12-01T11:47:30;19.50;;;9.38;;
31728;SDS011;18309;43.658;1.312;2022-12-01T11:50:01;21.23;;;10.20;;
31728;SDS011;18309;43.658;1.312;2022-12-01T11:52:46;22.02;;;10.30;;
31728;SDS011;18309;43.658;1.312;2022-12-01T11:57:39;20.50;;;9.43;;
31728;SDS011;18309;43.658;1.312;2022-12-01T12:00:14;18.20;;;9.18;;
31728;SDS011;18309;43.658;1.312;2022-12-01T12:19:03;18.77;;;8.60;;
31728;SDS011;18309;43.658;1.312;2022-12-01T12:35:15;16.75;;;8.85;;
31728;SDS011;18309;43.658;1.312;2022-12-01T12:46:12;17.45;;;8.93;;
31728;SDS011;18309;43.658;1.312;2022-12-01T12:52:10;20.30;;;10.13;;
31728;SDS011;18309;43.658;1.312;2022-12-01T12:57:33;19.00;;;9.93;;
31728;SDS011;18309;43.658;1.312;2022-12-01T13:00:00;21.85;;;10.48;;
31728;SDS011;18309;43.658;1.312;2022-12-01T13:02:43;19.60;;;9.68;;
31728;SDS011;18309;43.658;1.312;2022-12-01T13:05:44;20.60;;;9.65;;
31728;SDS011;18309;43.658;1.312;2022-12-01T13:08:26;19.65;;;9.65;;
31728;SDS011;18309;43.658;1.312;2022-12-01T13:11:21;23.38;;;10.35;;
31728;SDS011;18309;43.658;1.312;2022-12-01T13:13:55;22.13;;;10.60;;
31728;SDS011;18309;43.658;1.312;2022-12-01T13:16:25;20.80;;;10.48;;
31728;SDS011;18309;43.658;1.312;2022-12-01T13:19:03;19.63;;;10.50;;
31728;SDS011;18309;43.658;1.312;2022-12-01T13:21:38;17.23;;;8.88;;
31728;SDS011;18309;43.658;1.312;2022-12-01T13:24:08;23.15;;;10.15;;
31728;SDS011;18309;43.658;1.312;2022-12-01T13:29:05;21.30;;;9.75;;
31728;SDS011;18309;43.658;1.312;2022-12-01T13:31:42;19.42;;;9.68;;
31728;SDS011;18309;43.658;1.312;2022-12-01T13:34:18;18.52;;;9.63;;
31728;SDS011;18309;43.658;1.312;2022-12-01T13:37:01;19.98;;;9.23;;
31728;SDS011;18309;43.658;1.312;2022-12-01T13:39:31;15.93;;;8.98;;
31728;SDS011;18309;43.658;1.312;2022-12-01T13:44:56;18.27;;;8.85;;
31728;SDS011;18309;43.658;1.312;2022-12-01T13:47:38;17.35;;;8.77;;
31728;SDS011;18309;43.658;1.312;2022-12-01T13:53:12;16.70;;;8.73;;
31728;SDS011;18309;43.658;1.312;2022-12-01T13:55:56;17.83;;;8.75;;
31728;SDS011;18309;43.658;1.312;2022-12-01T14:03:58;16.67;;;9.15;;
31728;SDS011;18309;43.658;1.312;2022-12-01T14:09:30;15.88;;;8.40;;
31728;SDS011;18309;43.658;1.312;2022-12-01T14:12:00;16.17;;;8.45;;
31728;SDS011;18309;43.658;1.312;2022-12-01T14:14:33;15.98;;;8.45;;
31728;SDS011;18309;43.658;1.312;2022-12-01T14:17:01;15.95;;;7.95;;
31728;SDS011;18309;43.658;1.312;2022-12-01T14:19:47;14.80;;;8.18;;
31728;SDS011;18309;43.658;1.312;2022-12-01T14:24:59;18.67;;;9.23;;
31728;SDS011;18309;43.658;1.312;2022-12-01T14:27:37;17.35;;;8.43;;
31728;SDS011;18309;43.658;1.312;2022-12-01T14:36:37;19.88;;;10.82;;
31728;SDS011;18309;43.658;1.312;2022-12-01T14:44:26;20.35;;;9.95;;
31728;SDS011;18309;43.658;1.312;2022-12-01T14:47:00;21.27;;;10.07;;
31728;SDS011;18309;43.658;1.312;2022-12-01T14:49:39;19.48;;;10.35;;
31728;SDS011;18309;43.658;1.312;2022-12-01T14:55:23;19.48;;;10.80;;
31728;SDS011;18309;43.658;1.312;2022-12-01T14:58:12;18.05;;;9.15;;
31728;SDS011;18309;43.658;1.312;2022-12-01T15:01:04;20.25;;;10.55;;
31728;SDS011;18309;43.658;1.312;2022-12-01T15:06:15;22.20;;;11.05;;
31728;SDS011;18309;43.658;1.312;2022-12-01T15:08:42;20.63;;;10.68;;
31728;SDS011;18309;43.658;1.312;2022-12-01T15:11:20;24.58;;;11.05;;
31728;SDS011;18309;43.658;1.312;2022-12-01T15:13:50;22.50;;;11.43;;
31728;SDS011;18309;43.658;1.312;2022-12-01T15:16:18;28.33;;;11.73;;
31728;SDS011;18309;43.658;1.312;2022-12-01T15:18:46;27.98;;;11.93;;
31728;SDS011;18309;43.658;1.312;2022-12-01T15:24:34;24.02;;;11.50;;
31728;SDS011;18309;43.658;1.312;2022-12-01T15:27:00;23.42;;;11.30;;
31728;SDS011;18309;43.658;1.312;2022-12-01T15:29:42;25.08;;;10.70;;
31728;SDS011;18309;43.658;1.312;2022-12-01T15:32:11;21.08;;;11.65;;
31728;SDS011;18309;43.658;1.312;2022-12-01T15:34:41;21.58;;;11.38;;
31728;SDS011;18309;43.658;1.312;2022-12-01T15:37:09;25.20;;;12.32;;
31728;SDS011;18309;43.658;1.312;2022-12-01T15:39:45;24.90;;;12.98;;
31728;SDS011;18309;43.658;1.312;2022-12-01T15:42:32;28.10;;;11.45;;
31728;SDS011;18309;43.658;1.312;2022-12-01T15:45:00;22.38;;;11.60;;
31728;SDS011;18309;43.658;1.312;2022-12-01T15:50:30;23.67;;;11.30;;
31728;SDS011;18309;43.658;1.312;2022-12-01T15:53:01;23.15;;;12.07;;
31728;SDS011;18309;43.658;1.312;2022-12-01T15:55:32;21.05;;;10.95;;
31728;SDS011;18309;43.658;1.312;2022-12-01T15:58:00;22.60;;;11.32;;
31728;SDS011;18309;43.658;1.312;2022-12-01T16:00:30;21.63;;;11.38;;
31728;SDS011;18309;43.658;1.312;2022-12-01T16:02:56;22.67;;;11.02;;
31728;SDS011;18309;43.658;1.312;2022-12-01T16:05:26;21.30;;;10.57;;
31728;SDS011;18309;43.658;1.312;2022-12-01T16:07:57;27.63;;;9.90;;
31728;SDS011;18309;43.658;1.312;2022-12-01T16:10:37;21.58;;;11.20;;
31728;SDS011;18309;43.658;1.312;2022-12-01T16:15:59;21.50;;;10.25;;
31728;SDS011;18309;43.658;1.312;2022-12-01T16:18:32;21.17;;;11.13;;
31728;SDS011;18309;43.658;1.312;2022-12-01T16:21:02;26.00;;;11.13;;
31728;SDS011;18309;43.658;1.312;2022-12-01T16:23:29;21.67;;;11.15;;
31728;SDS011;18309;43.658;1.312;2022-12-01T16:25:56;22.77;;;10.50;;
31728;SDS011;18309;43.658;1.312;2022-12-01T16:28:24;23.60;;;11.07;;
31728;SDS011;18309;43.658;1.312;2022-12-01T16:30:59;23.13;;;11.20;;
31728;SDS011;18309;43.658;1.312;2022-12-01T16:33:26;25.42;;;11.90;;
31728;SDS011;18309;43.658;1.312;2022-12-01T16:35:53;24.17;;;12.55;;
31728;SDS011;18309;43.658;1.312;2022-12-01T16:38:23;22.17;;;10.55;;
31728;SDS011;18309;43.658;1.312;2022-12-01T16:40:53;22.10;;;11.88;;
31728;SDS011;18309;43.658;1.312;2022-12-01T16:43:22;28.27;;;12.38;;
31728;SDS011;18309;43.658;1.312;2022-12-01T16:45:49;23.17;;;12.00;;
31728;SDS011;18309;43.658;1.312;2022-12-01T16:48:22;27.15;;;11.77;;
31728;SDS011;18309;43.658;1.312;2022-12-01T16:50:49;22.55;;;11.05;;
31728;SDS011;18309;43.658;1.312;2022-12-01T16:53:15;28.95;;;13.13;;
31728;SDS011;18309;43.658;1.312;2022-12-01T16:58:15;25.30;;;11.98;;
31728;SDS011;18309;43.658;1.312;2022-12-01T17:03:48;26.83;;;13.43;;
31728;SDS011;18309;43.658;1.312;2022-12-01T17:06:18;33.90;;;16.35;;
31728;SDS011;18309;43.658;1.312;2022-12-01T17:08:44;31.75;;;14.38;;
31728;SDS011;18309;43.658;1.312;2022-12-01T17:11:10;26.33;;;13.32;;
31728;SDS011;18309;43.658;1.312;2022-12-01T17:13:36;27.52;;;13.60;;
31728;SDS011;18309;43.658;1.312;2022-12-01T17:16:05;29.85;;;14.23;;
31728;SDS011;18309;43.658;1.312;2022-12-01T17:18:35;25.57;;;13.40;;
31728;SDS011;18309;43.658;1.312;2022-12-01T17:21:03;25.58;;;13.38;;
31728;SDS011;18309;43.658;1.312;2022-12-01T17:23:32;23.63;;;11.95;;
31728;SDS011;18309;43.658;1.312;2022-12-01T17:25:59;28.65;;;11.95;;
31728;SDS011;18309;43.658;1.312;2022-12-01T17:28:25;28.75;;;12.52;;
31728;SDS011;18309;43.658;1.312;2022-12-01T17:30:51;24.83;;;11.80;;
31728;SDS011;18309;43.658;1.312;2022-12-01T17:33:16;25.05;;;12.25;;
31728;SDS011;18309;43.658;1.312;2022-12-01T17:39:04;22.63;;;11.30;;
31728;SDS011;18309;43.658;1.312;2022-12-01T17:41:30;21.08;;;11.77;;
31728;SDS011;18309;43.658;1.312;2022-12-01T17:44:02;22.38;;;11.15;;
31728;SDS011;18309;43.658;1.312;2022-12-01T17:46:29;28.50;;;11.90;;
31728;SDS011;18309;43.658;1.312;2022-12-01T17:48:55;22.25;;;11.50;;
31728;SDS011;18309;43.658;1.312;2022-12-01T17:51:20;25.92;;;12.95;;
31728;SDS011;18309;43.658;1.312;2022-12-01T17:53:46;26.30;;;12.50;;
31728;SDS011;18309;43.658;1.312;2022-12-01T17:56:12;24.90;;;12.25;;
31728;SDS011;18309;43.658;1.312;2022-12-01T17:58:39;22.27;;;12.20;;
31728;SDS011;18309;43.658;1.312;2022-12-01T18:01:11;31.50;;;15.15;;